createdAt,value
2022-11-17T03:33:32.498Z,7.77
2022-11-17T03:36:04.979Z,7.79
2022-11-17T03:38:36.249Z,7.78
2022-11-17T03:41:07.574Z,7.78
2022-11-17T03:43:36.194Z,7.77
2022-11-17T03:46:08.403Z,7.75
2022-11-17T03:48:42.108Z,7.74
2022-11-17T03:51:14.086Z,7.75
2022-11-17T03:53:42.353Z,7.77
2022-11-17T03:56:23.566Z,7.82
2022-11-17T03:58:56.842Z,7.88
2022-11-17T04:01:25.949Z,7.95
2022-11-17T04:03:54.867Z,7.99
2022-11-17T04:06:22.524Z,8.02
2022-11-17T04:08:50.101Z,8.06
2022-11-17T04:11:35.591Z,8.08
2022-11-17T04:14:20.843Z,8.11
2022-11-17T04:16:48.405Z,8.11
2022-11-17T04:19:17.260Z,8.09
2022-11-17T04:21:44.836Z,8.13
2022-11-17T04:24:12.395Z,8.17
2022-11-17T04:26:57.745Z,8.20
2022-11-17T04:29:25.227Z,8.24
2022-11-17T04:31:52.751Z,8.28
2022-11-17T04:34:21.773Z,8.32
2022-11-17T04:36:49.280Z,8.38
2022-11-17T04:39:17.042Z,8.42
2022-11-17T04:42:01.871Z,8.45
2022-11-17T04:44:30.539Z,8.45
2022-11-17T04:46:58.926Z,8.43
2022-11-17T04:49:27.936Z,8.45
2022-11-17T04:51:55.516Z,8.46
2022-11-17T04:54:25.165Z,8.49
2022-11-17T04:56:53.125Z,8.51
2022-11-17T04:59:20.912Z,8.55
2022-11-17T05:01:49.055Z,8.60
2022-11-17T05:04:39.187Z,8.60
2022-11-17T05:07:08.773Z,8.64
2022-11-17T05:09:36.815Z,8.65
2022-11-17T05:12:22.142Z,8.66
2022-11-17T05:14:50.496Z,8.68
2022-11-17T05:17:17.498Z,8.71
2022-11-17T05:19:46.646Z,8.72
2022-11-17T05:22:35.779Z,8.70
2022-11-17T05:25:03.588Z,8.65
2022-11-17T05:27:31.447Z,8.62
2022-11-17T05:30:03.139Z,8.61
2022-11-17T05:32:30.844Z,8.59
2022-11-17T05:34:58.913Z,8.54
2022-11-17T05:37:28.358Z,8.48
2022-11-17T05:39:57.172Z,8.42
2022-11-17T05:42:24.782Z,8.38
2022-11-17T05:44:52.368Z,8.36
2022-11-17T05:47:19.967Z,8.36
2022-11-17T06:08:34.102Z,8.24
2022-11-17T06:22:31.870Z,8.28
2022-11-17T06:25:18.219Z,8.29
2022-11-17T06:27:51.930Z,8.31
2022-11-17T06:30:22.462Z,8.35
2022-11-17T06:32:52.260Z,8.36
2022-11-17T06:35:21.115Z,8.35
2022-11-17T06:37:50.301Z,8.36
2022-11-17T06:40:22.255Z,8.36
2022-11-17T06:43:13.228Z,8.39
2022-11-17T06:45:43.063Z,8.41
2022-11-17T06:48:13.474Z,8.44
2022-11-17T06:50:42.777Z,8.46
2022-11-17T06:53:13.512Z,8.48
2022-11-17T06:55:44.530Z,8.48
2022-11-17T06:58:13.020Z,8.48
2022-11-17T07:00:41.953Z,8.49
2022-11-17T07:03:12.561Z,8.50
2022-11-17T07:05:41.100Z,8.54
2022-11-17T07:08:13.700Z,8.56
2022-11-17T07:10:49.187Z,8.54
2022-11-17T07:13:18.105Z,8.54
2022-11-17T07:15:46.847Z,8.52
2022-11-17T07:18:15.323Z,8.55
2022-11-17T07:20:43.818Z,8.59
2022-11-17T07:23:12.380Z,8.63
2022-11-17T07:25:41.069Z,8.65
2022-11-17T07:28:11.539Z,8.70
2022-11-17T07:30:40.089Z,8.73
2022-11-17T07:33:08.839Z,8.75
2022-11-17T07:35:37.985Z,8.77
2022-11-17T07:38:06.861Z,8.82
2022-11-17T07:40:36.446Z,8.86
2022-11-17T07:43:05.273Z,8.89
2022-11-17T07:45:35.329Z,8.91
2022-11-17T07:48:06.020Z,8.93
2022-11-17T07:50:35.369Z,8.90
2022-11-17T07:53:03.614Z,8.89
2022-11-17T07:55:32.725Z,8.91
2022-11-17T07:58:03.165Z,8.93
2022-11-17T08:00:33.906Z,9.01
2022-11-17T08:03:05.510Z,9.07
2022-11-17T08:05:42.951Z,9.11
2022-11-17T08:08:13.877Z,9.16
2022-11-17T08:10:43.226Z,9.20
2022-11-17T08:13:13.074Z,9.21
2022-11-17T08:15:42.040Z,9.20
2022-11-17T08:18:12.596Z,9.19
2022-11-17T08:20:41.194Z,9.20
2022-11-17T08:23:09.886Z,9.25
2022-11-17T08:25:38.388Z,9.33
2022-11-17T08:28:07.172Z,9.40
2022-11-17T08:30:36.688Z,9.45
2022-11-17T08:33:05.305Z,9.48
2022-11-17T08:35:37.683Z,9.55
2022-11-17T08:38:07.122Z,9.58
2022-11-17T08:40:36.494Z,9.61
2022-11-17T08:43:05.556Z,9.61
2022-11-17T08:45:34.568Z,9.63
2022-11-17T08:48:05.090Z,9.64
2022-11-17T08:50:35.647Z,9.67
2022-11-17T08:53:04.781Z,9.67
2022-11-17T08:55:39.614Z,9.67
2022-11-17T08:58:09.843Z,9.71
2022-11-17T09:00:38.834Z,9.73
2022-11-17T09:03:08.345Z,9.74
2022-11-17T09:05:41.070Z,9.76
2022-11-17T09:08:43.382Z,9.81
2022-11-17T09:11:00.717Z,9.81
2022-11-17T09:13:29.958Z,9.82
2022-11-17T09:16:04.394Z,9.83
2022-11-17T09:18:35.404Z,9.85
2022-11-17T09:21:07.820Z,9.83
2022-11-17T09:23:37.687Z,9.84
2022-11-17T09:26:07.944Z,9.87
2022-11-17T09:28:38.028Z,9.90
2022-11-17T09:31:12.471Z,9.93
2022-11-17T09:33:40.281Z,9.95
2022-11-17T09:36:09.828Z,9.98
2022-11-17T09:38:38.437Z,10.01
2022-11-17T09:41:19.786Z,10.05
2022-11-17T09:43:53.152Z,10.08
2022-11-17T09:46:25.872Z,10.12
2022-11-17T09:48:57.000Z,10.18
2022-11-17T09:51:30.620Z,10.22
2022-11-17T09:54:06.792Z,10.31
2022-11-17T09:56:35.030Z,10.39
2022-11-17T09:59:11.970Z,10.46
2022-11-17T10:01:40.005Z,10.54
2022-11-17T10:04:12.446Z,10.61
2022-11-17T10:06:43.256Z,10.68
2022-11-17T10:09:25.168Z,10.72
2022-11-17T10:11:54.938Z,10.78
2022-11-17T10:14:23.303Z,10.82
2022-11-17T10:16:53.640Z,10.89
2022-11-17T10:19:26.424Z,10.95
2022-11-17T10:21:55.841Z,11.00
2022-11-17T10:24:37.843Z,11.05
2022-11-17T10:27:07.924Z,11.08
2022-11-17T10:29:35.501Z,11.10
2022-11-17T10:32:09.709Z,11.16
2022-11-17T10:34:41.665Z,11.19
2022-11-17T10:37:26.636Z,11.24
2022-11-17T10:40:18.193Z,11.25
2022-11-17T10:42:57.460Z,11.27
2022-11-17T10:45:25.433Z,11.32
2022-11-17T10:47:53.040Z,11.37
2022-11-17T10:50:25.856Z,11.41
2022-11-17T10:52:56.998Z,11.44
2022-11-17T10:55:27.754Z,11.47
2022-11-17T10:57:59.647Z,11.51
2022-11-17T11:00:31.159Z,11.55
2022-11-17T11:03:18.115Z,11.62
2022-11-17T11:06:23.308Z,11.69
2022-11-17T11:08:57.099Z,11.73
2022-11-17T11:11:40.241Z,11.80
2022-11-17T11:14:15.674Z,11.88
2022-11-17T11:16:48.185Z,11.93
2022-11-17T11:19:18.368Z,11.99
2022-11-17T11:22:11.190Z,12.09
2022-11-17T11:24:46.423Z,12.18
2022-11-17T11:27:29.125Z,12.26
2022-11-17T11:30:03.580Z,12.31
2022-11-17T11:32:41.837Z,12.42
2022-11-17T11:35:38.159Z,12.65
2022-11-17T11:38:20.986Z,12.87
2022-11-17T11:40:55.668Z,13.05
2022-11-17T11:43:34.167Z,13.16
2022-11-17T11:46:09.243Z,13.25
2022-11-17T11:48:40.963Z,13.44
2022-11-17T11:51:15.604Z,13.74
2022-11-17T11:53:51.865Z,14.05
2022-11-17T11:56:25.941Z,14.39
2022-11-17T11:59:00.210Z,14.71
2022-11-17T12:01:31.557Z,15.02
2022-11-17T12:04:12.151Z,15.29
2022-11-17T12:06:53.815Z,15.43
2022-11-17T12:09:40.736Z,15.54
2022-11-17T12:12:15.949Z,15.63
2022-11-17T12:15:30.792Z,15.73
2022-11-17T12:18:00.901Z,15.78
2022-11-17T12:21:05.118Z,15.79
2022-11-17T12:23:48.254Z,15.78
2022-11-17T12:26:24.456Z,15.78
2022-11-17T12:29:25.467Z,15.74
2022-11-17T12:31:55.618Z,15.66
2022-11-17T12:34:26.374Z,15.59
2022-11-17T12:37:26.227Z,15.56
2022-11-17T12:40:07.868Z,15.53
2022-11-17T12:42:36.655Z,15.50
2022-11-17T12:45:06.778Z,15.47
2022-11-17T12:47:37.707Z,15.46
2022-11-17T12:50:28.391Z,15.48
2022-11-17T12:53:20.779Z,15.49
2022-11-17T12:56:12.883Z,15.45
2022-11-17T12:58:53.131Z,15.43
2022-11-17T13:01:28.404Z,15.41
2022-11-17T13:04:01.893Z,15.42
2022-11-17T13:06:37.052Z,15.41
2022-11-17T13:09:07.208Z,15.41
2022-11-17T13:11:35.595Z,15.42
2022-11-17T13:14:11.427Z,15.40
2022-11-17T13:16:46.708Z,15.38
2022-11-17T13:19:36.441Z,15.40
2022-11-17T13:22:06.942Z,15.43
2022-11-17T13:24:36.671Z,15.44
2022-11-17T13:27:07.330Z,15.48
2022-11-17T13:29:35.439Z,15.50
2022-11-17T13:32:12.671Z,15.53
2022-11-17T13:34:51.664Z,15.53
2022-11-17T13:37:22.047Z,15.55
2022-11-17T13:39:57.348Z,15.57
2022-11-17T13:42:27.181Z,15.55
2022-11-17T13:44:59.731Z,15.51
2022-11-17T13:47:28.683Z,15.53
2022-11-17T13:50:33.318Z,15.52
2022-11-17T13:53:03.540Z,15.50
2022-11-17T13:55:31.431Z,15.48
2022-11-17T13:58:00.953Z,15.45
2022-11-17T14:00:30.955Z,15.41
2022-11-17T14:03:00.731Z,15.36
2022-11-17T14:05:31.136Z,15.29
2022-11-17T14:08:11.480Z,15.22
2022-11-17T14:10:40.677Z,15.16
2022-11-17T14:13:28.653Z,15.11
2022-11-17T14:15:59.112Z,15.04
2022-11-17T14:18:29.809Z,14.97
2022-11-17T14:21:14.097Z,14.91
2022-11-17T14:23:42.685Z,14.86
2022-11-17T14:26:22.387Z,14.80
2022-11-17T14:28:51.770Z,14.76
2022-11-17T14:31:19.995Z,14.72
2022-11-17T14:33:47.700Z,14.69
2022-11-17T14:36:18.378Z,14.64
2022-11-17T14:38:46.814Z,14.60
2022-11-17T14:41:16.101Z,14.56
2022-11-17T14:43:43.664Z,14.53
2022-11-17T14:46:23.667Z,14.49
2022-11-17T14:48:51.586Z,14.45
2022-11-17T14:51:21.486Z,14.41
2022-11-17T14:53:49.467Z,14.35
2022-11-17T14:56:19.004Z,14.28
2022-11-17T14:58:48.415Z,14.23
2022-11-17T15:01:18.357Z,14.18
2022-11-17T15:03:46.324Z,14.15
2022-11-17T15:06:19.446Z,14.11
2022-11-17T15:08:49.006Z,14.08
2022-11-17T15:11:18.838Z,14.02
2022-11-17T15:13:46.351Z,14.00
2022-11-17T15:16:13.926Z,13.98
2022-11-17T15:18:41.453Z,13.94
2022-11-17T15:21:11.258Z,13.93
2022-11-17T15:23:40.930Z,13.90
2022-11-17T15:26:12.990Z,13.87
2022-11-17T15:28:40.551Z,13.84
2022-11-17T15:31:12.976Z,13.80
2022-11-17T15:39:51.356Z,13.72
2022-11-17T15:43:14.979Z,13.67
2022-11-17T15:46:08.783Z,13.64
2022-11-17T15:49:02.548Z,13.58
2022-11-17T15:52:04.987Z,13.56
2022-11-17T15:55:06.471Z,13.51
2022-11-17T15:58:10.625Z,13.44
2022-11-17T16:01:48.588Z,13.38
2022-11-17T16:04:38.632Z,13.24
2022-11-17T16:10:07.240Z,13.08
2022-11-17T16:12:54.683Z,13.00
2022-11-17T16:15:35.666Z,12.94
2022-11-17T16:18:19.788Z,12.84
2022-11-17T16:20:55.095Z,12.76
2022-11-17T16:23:27.440Z,12.68
2022-11-17T16:26:04.281Z,12.62
2022-11-17T16:28:38.803Z,12.56
2022-11-17T16:31:20.534Z,12.49
2022-11-17T16:34:16.026Z,12.43
2022-11-17T16:39:37.285Z,12.32
2022-11-17T16:42:11.241Z,12.21
2022-11-17T16:44:47.422Z,12.15
2022-11-17T16:47:30.518Z,12.11
2022-11-17T16:50:07.366Z,12.09
2022-11-17T16:52:43.868Z,12.05
2022-11-17T16:55:19.527Z,12.04
2022-11-17T16:57:56.309Z,12.02
2022-11-17T17:00:34.358Z,11.99
2022-11-17T17:03:15.591Z,11.93
2022-11-17T17:05:50.239Z,11.87
2022-11-17T17:08:21.966Z,11.83
2022-11-17T17:10:56.635Z,11.80
2022-11-17T17:13:40.325Z,11.71
2022-11-17T17:16:24.594Z,11.67
2022-11-17T17:18:57.987Z,11.64
2022-11-17T17:21:34.779Z,11.60
2022-11-17T17:24:10.218Z,11.55
2022-11-17T17:26:41.499Z,11.51
2022-11-17T17:29:13.711Z,11.51
2022-11-17T17:31:49.311Z,11.52
2022-11-17T17:34:20.670Z,11.52
2022-11-17T17:36:59.601Z,11.52
2022-11-17T17:39:38.388Z,11.48
2022-11-17T17:42:12.145Z,11.45
2022-11-17T17:44:42.050Z,11.39
2022-11-17T17:47:13.786Z,11.39
2022-11-17T17:49:43.858Z,11.39
2022-11-17T17:52:17.340Z,11.39
2022-11-17T17:54:47.699Z,11.43
2022-11-17T17:57:19.203Z,11.46
2022-11-17T17:59:48.115Z,11.44
2022-11-17T18:02:22.838Z,11.41
2022-11-17T18:04:51.745Z,11.37
2022-11-17T18:07:24.583Z,11.33
2022-11-17T18:09:55.109Z,11.27
2022-11-17T18:12:31.102Z,11.21
2022-11-17T18:15:03.144Z,11.17
2022-11-17T18:17:35.176Z,11.17
2022-11-17T18:20:06.189Z,11.12
2022-11-17T18:22:42.986Z,11.09
2022-11-17T18:25:33.646Z,11.08
2022-11-17T18:37:35.907Z,11.10
2022-11-17T18:49:45.136Z,11.20
2022-11-17T18:56:46.778Z,11.24
2022-11-17T18:59:28.646Z,11.24
2022-11-17T19:01:59.424Z,11.23
2022-11-17T19:04:28.673Z,11.25
2022-11-17T19:07:08.851Z,11.25
2022-11-17T19:17:15.643Z,11.27
2022-11-17T19:27:38.464Z,11.26
2022-11-17T19:30:08.542Z,11.25
2022-11-17T19:32:36.359Z,11.25
2022-11-17T19:54:06.003Z,11.19
2022-11-17T19:56:34.295Z,11.19
2022-11-17T19:59:03.812Z,11.20
2022-11-17T20:05:14.274Z,11.19
2022-11-17T20:07:59.442Z,11.19
2022-11-17T20:10:52.863Z,11.20
2022-11-17T20:13:38.299Z,11.17
2022-11-17T20:16:30.097Z,11.13
2022-11-17T20:19:19.160Z,11.10
2022-11-17T20:22:35.505Z,11.11
2022-11-17T21:35:10.296Z,11.48
2022-11-17T21:37:38.044Z,11.49
2022-11-17T21:40:06.814Z,11.50
2022-11-17T21:42:34.822Z,11.49
2022-11-17T21:45:02.427Z,11.47
2022-11-17T21:47:30.231Z,11.46
2022-11-17T21:49:57.919Z,11.46
2022-11-17T21:52:26.965Z,11.43
2022-11-17T21:54:54.855Z,11.41
2022-11-17T21:57:22.450Z,11.39
2022-11-17T21:59:50.079Z,11.40
2022-11-17T22:02:17.691Z,11.41
2022-11-17T22:04:45.283Z,11.39
2022-11-17T22:07:12.892Z,11.35
2022-11-17T22:09:41.954Z,11.33
2022-11-17T22:12:09.577Z,11.30
2022-11-17T22:14:37.272Z,11.28
2022-11-17T22:17:04.945Z,11.29
2022-11-17T22:19:33.703Z,11.29
2022-11-17T22:22:01.359Z,11.29
2022-11-17T22:24:28.972Z,11.28
2022-11-17T22:26:58.009Z,11.29
2022-11-17T22:29:25.778Z,11.29
2022-11-17T22:31:53.596Z,11.29
2022-11-17T22:34:21.241Z,11.30
2022-11-17T22:36:48.905Z,11.30
2022-11-17T22:39:17.215Z,11.29
2022-11-17T22:41:44.947Z,11.30
2022-11-17T22:44:16.820Z,11.28
2022-11-17T22:46:45.605Z,11.26
2022-11-17T22:49:13.698Z,11.25
2022-11-17T22:51:59.255Z,11.20
2022-11-17T22:54:26.865Z,11.16
2022-11-17T22:56:54.518Z,11.11
2022-11-17T22:59:25.050Z,11.09
2022-11-17T23:01:52.760Z,11.07
2022-11-17T23:04:20.688Z,11.03
2022-11-17T23:06:48.458Z,11.02
2022-11-17T23:09:16.335Z,11.00
2022-11-17T23:11:44.250Z,10.99
2022-11-17T23:14:13.664Z,10.97
2022-11-17T23:16:42.993Z,10.97
2022-11-17T23:19:13.513Z,10.97
2022-11-17T23:21:41.378Z,10.97
2022-11-17T23:24:12.544Z,10.96
2022-11-17T23:26:40.992Z,10.96
2022-11-17T23:29:09.183Z,10.96
2022-11-17T23:31:36.775Z,10.95
2022-11-17T23:34:05.797Z,10.94
2022-11-17T23:36:33.397Z,10.91
2022-11-17T23:39:00.995Z,10.86
2022-11-17T23:41:28.773Z,10.82
2022-11-17T23:43:56.657Z,10.81
2022-11-17T23:46:26.432Z,10.75
2022-11-17T23:48:56.197Z,10.65
2022-11-17T23:51:28.698Z,10.58
2022-11-17T23:53:58.681Z,10.49
2022-11-17T23:56:26.353Z,10.41
2022-11-17T23:58:54.315Z,10.29
